createdAt,value
2019-02-02T00:01:49.405Z,97380.09
2019-02-02T00:04:20.143Z,97384.25
2019-02-02T00:06:51.131Z,97383.29
2019-02-02T00:09:22.085Z,97367.94
2019-02-02T00:11:52.586Z,97376.50
2019-02-02T00:14:23.401Z,97379.77
2019-02-02T00:16:54.052Z,97375.36
2019-02-02T00:19:24.909Z,97379.45
2019-02-02T00:21:55.417Z,97377.14
2019-02-02T00:24:26.174Z,97375.16
2019-02-02T00:26:56.877Z,97368.44
2019-02-02T00:29:29.318Z,97363.07
2019-02-02T00:32:00.398Z,97366.38
2019-02-02T00:34:31.906Z,97357.42
2019-02-02T00:37:02.893Z,97350.20
2019-02-02T00:39:33.520Z,97353.66
2019-02-02T00:42:04.238Z,97356.42
2019-02-02T00:44:35.335Z,97352.59
2019-02-02T00:47:05.887Z,97354.36
2019-02-02T00:49:36.608Z,97360.27
2019-02-02T00:52:08.816Z,97355.96
2019-02-02T00:54:39.863Z,97360.09
2019-02-02T00:57:10.466Z,97364.74
2019-02-02T00:59:41.344Z,97355.39
2019-02-02T01:02:11.926Z,97364.07
2019-02-02T01:04:45.688Z,97370.57
2019-02-02T01:07:16.366Z,97363.28
2019-02-02T01:09:47.133Z,97363.75
2019-02-02T01:12:17.876Z,97359.98
2019-02-02T01:14:48.664Z,97364.56
2019-02-02T01:17:19.247Z,97367.41
2019-02-02T01:19:49.848Z,97365.73
2019-02-02T01:22:20.577Z,97364.84
2019-02-02T01:24:51.392Z,97370.32
2019-02-02T01:27:22.176Z,97359.91
2019-02-02T01:29:52.766Z,97350.63
2019-02-02T01:32:23.513Z,97345.83
2019-02-02T01:34:54.079Z,97336.45
2019-02-02T01:37:24.766Z,97333.03
2019-02-02T01:39:55.503Z,97343.73
2019-02-02T01:42:26.393Z,97346.79
2019-02-02T01:44:57.006Z,97345.34
2019-02-02T01:47:27.683Z,97339.69
2019-02-02T01:49:58.345Z,97344.62
2019-02-02T01:52:29.057Z,97341.75
2019-02-02T01:54:59.782Z,97330.47
2019-02-02T01:57:30.293Z,97321.59
2019-02-02T02:00:00.918Z,97320.49
2019-02-02T02:02:31.672Z,97327.21
2019-02-02T02:05:02.268Z,97321.84
2019-02-02T02:07:33.114Z,97307.38
2019-02-02T02:10:03.945Z,97313.98
2019-02-02T02:12:38.227Z,97315.89
2019-02-02T02:15:11.766Z,97303.09
2019-02-02T02:17:42.652Z,97302.67
2019-02-02T02:20:14.585Z,97297.41
2019-02-02T02:22:46.674Z,97295.63
2019-02-02T02:25:20.248Z,97299.92
2019-02-02T02:27:51.672Z,97301.38
2019-02-02T02:30:23.891Z,97289.36
2019-02-02T02:32:55.031Z,97286.73
2019-02-02T02:35:25.795Z,97289.79
2019-02-02T02:37:56.457Z,97291.25
2019-02-02T02:40:27.185Z,97298.38
2019-02-02T02:42:57.923Z,97292.48
2019-02-02T02:45:28.941Z,97288.52
2019-02-02T02:47:59.625Z,97285.31
2019-02-02T02:50:30.335Z,97282.95
2019-02-02T02:53:00.847Z,97281.41
2019-02-02T02:55:31.475Z,97271.23
2019-02-02T02:58:02.175Z,97279.87
2019-02-02T03:00:32.958Z,97263.94
2019-02-02T03:03:03.623Z,97259.85
2019-02-02T03:05:34.354Z,97262.84
2019-02-02T03:08:05.017Z,97259.00
2019-02-02T03:10:35.674Z,97260.98
2019-02-02T03:13:06.806Z,97262.66
2019-02-02T03:15:37.484Z,97260.23
2019-02-02T03:18:08.335Z,97264.37
2019-02-02T03:20:38.959Z,97273.10
2019-02-02T03:23:09.627Z,97276.22
2019-02-02T03:25:40.478Z,97278.16
2019-02-02T03:28:11.098Z,97280.59
2019-02-02T03:30:42.142Z,97283.77
2019-02-02T03:33:13.061Z,97284.66
2019-02-02T03:35:43.806Z,97293.75
2019-02-02T03:38:14.419Z,97299.19
2019-02-02T03:40:45.007Z,97298.02
2019-02-02T03:43:15.625Z,97301.28
2019-02-02T03:45:46.306Z,97294.52
2019-02-02T03:48:16.925Z,97291.97
2019-02-02T03:50:47.472Z,97283.08
2019-02-02T03:53:18.185Z,97286.36
2019-02-02T03:55:48.708Z,97293.85
2019-02-02T03:58:19.299Z,97289.23
2019-02-02T04:00:50.066Z,97279.33
2019-02-02T04:03:20.929Z,97278.05
2019-02-02T04:05:51.560Z,97273.40
2019-02-02T04:08:22.227Z,97272.30
2019-02-02T04:10:52.942Z,97275.34
2019-02-02T04:13:23.619Z,97279.11
2019-02-02T04:15:54.327Z,97274.14
2019-02-02T04:18:24.885Z,97269.59
2019-02-02T04:20:55.362Z,97270.63
2019-02-02T04:23:25.927Z,97265.13
2019-02-02T04:25:58.718Z,97264.48
2019-02-02T04:28:29.414Z,97263.20
2019-02-02T04:31:00.031Z,97268.31
2019-02-02T04:33:30.660Z,97271.14
2019-02-02T04:36:02.059Z,97266.81
2019-02-02T04:38:32.717Z,97256.49
2019-02-02T04:41:03.193Z,97262.81
2019-02-02T04:43:33.790Z,97268.78
2019-02-02T04:46:04.513Z,97262.39
2019-02-02T04:48:35.177Z,97256.78
2019-02-02T04:51:05.855Z,97269.07
2019-02-02T04:53:37.038Z,97267.80
2019-02-02T04:56:07.689Z,97268.92
2019-02-02T04:58:38.306Z,97252.16
2019-02-02T05:01:09.056Z,97258.73
2019-02-02T05:03:39.845Z,97270.38
2019-02-02T05:06:10.604Z,97265.98
2019-02-02T05:08:41.392Z,97276.45
2019-02-02T05:11:11.982Z,97262.95
2019-02-02T05:13:42.591Z,97263.84
2019-02-02T05:16:13.293Z,97270.09
2019-02-02T05:18:43.868Z,97270.72
2019-02-02T05:21:14.535Z,97271.39
2019-02-02T05:23:45.221Z,97273.60
2019-02-02T05:26:15.917Z,97282.92
2019-02-02T05:28:46.575Z,97279.62
2019-02-02T05:31:17.112Z,97285.08
2019-02-02T05:33:47.625Z,97279.97
2019-02-02T05:36:18.245Z,97275.61
2019-02-02T05:38:49.006Z,97291.38
2019-02-02T05:41:19.702Z,97301.99
2019-02-02T05:43:50.309Z,97300.78
2019-02-02T05:46:21.038Z,97298.55
2019-02-02T05:48:51.722Z,97293.97
2019-02-02T05:51:22.269Z,97288.60
2019-02-02T05:53:52.993Z,97284.80
2019-02-02T05:56:23.601Z,97293.17
2019-02-02T05:58:54.297Z,97282.55
2019-02-02T06:01:25.721Z,97284.73
2019-02-02T06:03:56.473Z,97280.91
2019-02-02T06:06:27.086Z,97284.93
2019-02-02T06:08:57.728Z,97287.07
2019-02-02T06:11:28.429Z,97283.23
2019-02-02T06:13:58.972Z,97287.75
2019-02-02T06:16:29.649Z,97298.55
2019-02-02T06:19:00.461Z,97296.23
2019-02-02T06:21:31.184Z,97308.41
2019-02-02T06:24:01.931Z,97313.59
2019-02-02T06:26:32.697Z,97306.95
2019-02-02T06:29:03.390Z,97317.16
2019-02-02T06:31:34.125Z,97327.09
2019-02-02T06:34:04.883Z,97319.86
2019-02-02T06:36:36.075Z,97317.13
2019-02-02T06:39:09.234Z,97306.34
2019-02-02T06:41:40.277Z,97314.94
2019-02-02T06:44:11.068Z,97317.77
2019-02-02T06:46:43.761Z,97319.24
2019-02-02T06:49:14.066Z,97326.46
2019-02-02T06:51:44.695Z,97316.05
2019-02-02T06:54:15.414Z,97308.23
2019-02-02T06:56:46.199Z,97316.23
2019-02-02T06:59:16.778Z,97315.02
2019-02-02T07:01:47.474Z,97332.69
2019-02-02T07:04:18.025Z,97329.78
2019-02-02T07:06:48.634Z,97325.52
2019-02-02T07:09:19.049Z,97331.70
2019-02-02T07:11:49.523Z,97331.11
2019-02-02T07:14:20.155Z,97337.06
2019-02-02T07:16:50.963Z,97333.02
2019-02-02T07:19:21.605Z,97329.34
2019-02-02T07:21:52.279Z,97324.14
2019-02-02T07:24:22.862Z,97324.76
2019-02-02T07:26:53.551Z,97334.19
2019-02-02T07:29:28.197Z,97341.06
2019-02-02T07:31:58.978Z,97332.95
2019-02-02T07:34:29.790Z,97325.95
2019-02-02T07:37:00.568Z,97325.27
2019-02-02T07:39:31.455Z,97334.56
2019-02-02T07:42:02.092Z,97334.00
2019-02-02T07:44:32.805Z,97342.64
2019-02-02T07:47:03.544Z,97344.05
2019-02-02T07:49:34.148Z,97357.49
2019-02-02T07:52:04.731Z,97361.60
2019-02-02T07:54:35.285Z,97363.64
2019-02-02T07:57:06.041Z,97369.06
2019-02-02T07:59:36.745Z,97366.40
2019-02-02T08:02:07.549Z,97367.19
2019-02-02T08:04:37.981Z,97364.82
2019-02-02T08:07:08.649Z,97360.53
2019-02-02T08:09:39.347Z,97357.08
2019-02-02T08:12:10.031Z,97353.99
2019-02-02T08:14:40.572Z,97358.67
2019-02-02T08:17:11.102Z,97366.10
2019-02-02T08:19:41.693Z,97373.56
2019-02-02T08:22:12.280Z,97377.08
2019-02-02T08:24:42.826Z,97373.83
2019-02-02T08:27:13.373Z,97371.55
2019-02-02T08:29:43.837Z,97370.12
2019-02-02T08:32:14.498Z,97373.64
2019-02-02T08:34:45.054Z,97373.84
2019-02-02T08:37:15.534Z,97360.62
2019-02-02T08:39:46.204Z,97367.31
2019-02-02T08:42:17.003Z,97361.61
2019-02-02T08:44:47.537Z,97364.75
2019-02-02T08:47:18.012Z,97360.02
2019-02-02T08:49:48.597Z,97353.53
2019-02-02T08:52:19.889Z,97364.95
2019-02-02T08:54:50.496Z,97381.12
2019-02-02T08:57:21.048Z,97375.77
2019-02-02T08:59:51.610Z,97381.52
2019-02-02T09:02:22.112Z,97385.02
2019-02-02T09:04:52.668Z,97381.20
2019-02-02T09:07:23.355Z,97379.44
2019-02-02T09:09:53.796Z,97381.73
2019-02-02T09:12:24.333Z,97386.94
2019-02-02T09:14:54.806Z,97386.78
2019-02-02T09:17:25.359Z,97386.27
2019-02-02T09:19:55.762Z,97393.30
2019-02-02T09:22:26.584Z,97396.77
2019-02-02T09:24:57.417Z,97397.20
2019-02-02T09:27:28.094Z,97405.39
2019-02-02T09:29:58.782Z,97398.44
2019-02-02T09:32:29.536Z,97389.70
2019-02-02T09:35:00.359Z,97400.28
2019-02-02T09:37:31.108Z,97406.47
2019-02-02T09:40:01.806Z,97405.14
2019-02-02T09:42:32.464Z,97400.91
2019-02-02T09:45:03.277Z,97403.60
2019-02-02T09:47:33.881Z,97412.02
2019-02-02T09:50:05.383Z,97424.92
2019-02-02T09:52:35.982Z,97428.19
2019-02-02T09:55:09.169Z,97439.83
2019-02-02T09:57:41.483Z,97442.87
2019-02-02T10:00:20.282Z,97440.08
2019-02-02T10:02:51.055Z,97435.97
2019-02-02T10:05:21.886Z,97448.07
2019-02-02T10:07:52.603Z,97431.46
2019-02-02T10:10:26.189Z,97424.87
2019-02-02T10:12:57.121Z,97419.89
2019-02-02T10:15:27.802Z,97408.82
2019-02-02T10:17:58.758Z,97403.95
2019-02-02T10:20:30.999Z,97425.31
2019-02-02T10:23:02.088Z,97411.47
2019-02-02T10:25:33.255Z,97433.09
2019-02-02T10:28:04.484Z,97431.61
2019-02-02T10:30:39.810Z,97438.00
2019-02-02T10:33:11.555Z,97435.91
2019-02-02T10:35:42.294Z,97434.84
2019-02-02T10:38:12.947Z,97420.50
2019-02-02T10:40:43.926Z,97418.02
2019-02-02T10:43:14.500Z,97406.96
2019-02-02T10:45:45.035Z,97412.27
2019-02-02T10:48:15.588Z,97405.66
2019-02-02T10:50:46.041Z,97413.34
2019-02-02T10:53:16.582Z,97418.50
2019-02-02T10:55:47.109Z,97414.52
2019-02-02T10:58:17.986Z,97400.73
2019-02-02T11:00:48.756Z,97411.88
2019-02-02T11:03:19.435Z,97412.09
2019-02-02T11:05:50.249Z,97404.54
2019-02-02T11:08:21.037Z,97408.59
2019-02-02T11:10:51.982Z,97406.27
2019-02-02T11:13:22.862Z,97408.79
2019-02-02T11:15:53.641Z,97406.23
2019-02-02T11:18:24.806Z,97398.92
2019-02-02T11:20:55.782Z,97406.72
2019-02-02T11:23:26.690Z,97404.31
2019-02-02T11:25:57.336Z,97412.52
2019-02-02T11:28:29.316Z,97409.97
2019-02-02T11:31:00.103Z,97410.92
2019-02-02T11:33:30.770Z,97403.61
2019-02-02T11:36:01.464Z,97408.95
2019-02-02T11:38:32.314Z,97412.59
2019-02-02T11:41:03.175Z,97411.37
2019-02-02T11:43:34.219Z,97406.98
2019-02-02T11:46:04.819Z,97410.33
2019-02-02T11:48:35.546Z,97410.48
2019-02-02T11:51:06.407Z,97410.75
2019-02-02T11:53:37.545Z,97410.57
2019-02-02T11:56:08.267Z,97402.98
2019-02-02T11:58:39.127Z,97397.58
2019-02-02T12:01:10.025Z,97398.85
2019-02-02T12:03:40.774Z,97409.23
2019-02-02T12:06:11.438Z,97413.16
2019-02-02T12:08:42.439Z,97411.09
2019-02-02T12:11:13.284Z,97412.23
2019-02-02T12:13:43.939Z,97412.58
2019-02-02T12:16:14.819Z,97416.00
2019-02-02T12:18:45.675Z,97408.75
2019-02-02T12:21:16.276Z,97410.97
2019-02-02T12:23:47.074Z,97398.58
2019-02-02T12:26:17.936Z,97403.39
2019-02-02T12:28:48.637Z,97394.24
2019-02-02T12:31:19.264Z,97402.73
2019-02-02T12:33:50.044Z,97418.28
2019-02-02T12:36:20.836Z,97403.84
2019-02-02T12:38:51.560Z,97393.09
2019-02-02T12:41:22.428Z,97397.20
2019-02-02T12:43:53.266Z,97413.11
2019-02-02T12:46:24.032Z,97395.16
2019-02-02T12:48:54.877Z,97383.84
2019-02-02T12:51:25.713Z,97390.47
2019-02-02T12:53:56.959Z,97402.58
2019-02-02T12:56:27.740Z,97411.64
2019-02-02T12:58:58.527Z,97443.20
2019-02-02T13:01:29.477Z,97448.91
2019-02-02T13:04:02.313Z,97460.41
2019-02-02T13:06:32.466Z,97457.03
2019-02-02T13:09:03.443Z,97459.14
2019-02-02T13:11:35.077Z,97463.64
2019-02-02T13:14:07.049Z,97455.91
2019-02-02T13:16:37.900Z,97457.08
2019-02-02T13:19:08.534Z,97442.38
2019-02-02T13:21:39.150Z,97449.52
2019-02-02T13:24:09.964Z,97456.05
2019-02-02T13:26:40.794Z,97461.42
2019-02-02T13:29:11.454Z,97454.72
2019-02-02T13:31:41.989Z,97443.16
2019-02-02T13:34:13.206Z,97449.25
2019-02-02T13:36:44.086Z,97454.56
2019-02-02T13:39:14.926Z,97440.33
2019-02-02T13:41:45.661Z,97427.68
2019-02-02T13:44:16.465Z,97426.55
2019-02-02T13:46:47.304Z,97430.75
2019-02-02T13:49:17.990Z,97428.38
2019-02-02T13:51:48.713Z,97429.34
2019-02-02T13:54:19.584Z,97431.03
2019-02-02T13:56:50.226Z,97429.28
2019-02-02T13:59:20.908Z,97440.02
2019-02-02T14:01:51.530Z,97440.31
2019-02-02T14:04:22.308Z,97440.17
2019-02-02T14:06:52.973Z,97443.16
2019-02-02T14:09:23.575Z,97449.00
2019-02-02T14:11:54.150Z,97448.55
2019-02-02T14:14:24.968Z,97458.75
2019-02-02T14:16:55.875Z,97456.57
2019-02-02T14:19:26.676Z,97464.52
2019-02-02T14:21:57.656Z,97467.31
2019-02-02T14:24:28.495Z,97465.62
2019-02-02T14:27:00.118Z,97470.53
2019-02-02T14:29:30.882Z,97479.95
2019-02-02T14:32:01.584Z,97485.60
2019-02-02T14:34:40.004Z,97492.17
2019-02-02T14:37:04.784Z,97490.25
2019-02-02T14:39:35.573Z,97510.30
2019-02-02T14:42:06.385Z,97506.06
2019-02-02T14:44:37.141Z,97502.92
2019-02-02T14:47:07.669Z,97511.05
2019-02-02T14:49:38.435Z,97513.92
2019-02-02T14:52:09.451Z,97519.48
2019-02-02T14:54:40.462Z,97521.23
2019-02-02T14:57:11.224Z,97518.93
2019-02-02T14:59:41.985Z,97526.05
2019-02-02T15:02:12.792Z,97528.27
2019-02-02T15:04:43.595Z,97545.52
2019-02-02T15:07:14.336Z,97543.73
2019-02-02T15:09:45.857Z,97538.37
2019-02-02T15:12:16.670Z,97537.28
2019-02-02T15:14:47.362Z,97548.16
2019-02-02T15:17:18.311Z,97550.62
2019-02-02T15:19:49.047Z,97538.64
2019-02-02T15:22:19.929Z,97544.41
2019-02-02T15:24:50.822Z,97554.18
2019-02-02T15:27:21.499Z,97558.77
2019-02-02T15:29:54.571Z,97576.19
2019-02-02T15:32:24.634Z,97571.74
2019-02-02T15:34:55.288Z,97578.30
2019-02-02T15:37:25.992Z,97579.72
2019-02-02T15:39:56.853Z,97571.22
2019-02-02T15:42:27.528Z,97576.87
2019-02-02T15:44:58.174Z,97586.78
2019-02-02T15:47:28.919Z,97585.75
2019-02-02T15:49:59.371Z,97588.87
2019-02-02T15:52:30.055Z,97595.36
2019-02-02T15:55:00.692Z,97605.45
2019-02-02T15:57:32.744Z,97612.06
2019-02-02T16:00:03.695Z,97616.44
2019-02-02T16:02:34.343Z,97623.09
2019-02-02T16:05:07.996Z,97628.89
2019-02-02T16:07:38.682Z,97632.42
2019-02-02T16:10:16.763Z,97632.42
2019-02-02T16:12:47.594Z,97642.52
2019-02-02T16:15:18.510Z,97647.44
2019-02-02T16:17:50.465Z,97664.61
2019-02-02T16:20:25.409Z,97674.98
2019-02-02T16:22:56.596Z,97675.58
2019-02-02T16:25:30.480Z,97664.80
2019-02-02T16:28:03.690Z,97684.33
2019-02-02T16:30:36.831Z,97679.95
2019-02-02T16:33:07.743Z,97696.12
2019-02-02T16:35:41.990Z,97700.66
2019-02-02T16:38:15.985Z,97710.05
2019-02-02T16:40:46.729Z,97718.31
2019-02-02T16:43:17.724Z,97724.00
2019-02-02T16:45:54.214Z,97728.53
2019-02-02T16:48:24.991Z,97744.58
2019-02-02T16:50:57.104Z,97755.00
2019-02-02T16:53:27.979Z,97760.41
2019-02-02T16:56:02.309Z,97762.80
2019-02-02T16:58:37.781Z,97765.88
2019-02-02T17:01:08.703Z,97786.67
2019-02-02T17:03:39.745Z,97788.92
2019-02-02T17:06:10.562Z,97790.79
2019-02-02T17:08:41.462Z,97798.06
2019-02-02T17:11:12.338Z,97799.85
2019-02-02T17:13:43.012Z,97800.41
2019-02-02T17:16:15.269Z,97797.13
2019-02-02T17:18:49.464Z,97800.62
2019-02-02T17:21:20.174Z,97811.52
2019-02-02T17:23:52.463Z,97821.36
2019-02-02T17:26:23.327Z,97829.08
2019-02-02T17:28:54.095Z,97840.94
2019-02-02T17:31:26.706Z,97839.66
2019-02-02T17:34:01.678Z,97842.22
2019-02-02T17:36:32.666Z,97844.95
2019-02-02T17:39:08.787Z,97849.44
2019-02-02T17:41:39.477Z,97868.04
2019-02-02T17:44:10.693Z,97882.70
2019-02-02T17:46:42.351Z,97887.49
2019-02-02T17:49:14.477Z,97887.17
2019-02-02T17:51:47.102Z,97882.86
2019-02-02T17:54:22.667Z,97887.81
2019-02-02T17:56:55.623Z,97893.41
2019-02-02T17:59:29.930Z,97903.63
2019-02-02T18:02:01.221Z,97902.34
2019-02-02T18:04:39.295Z,97905.81
2019-02-02T18:07:04.435Z,97907.17
2019-02-02T18:09:35.763Z,97906.78
2019-02-02T18:12:06.411Z,97907.45
2019-02-02T18:14:36.946Z,97906.77
2019-02-02T18:17:07.615Z,97907.59
2019-02-02T18:19:38.227Z,97902.00
2019-02-02T18:22:11.511Z,97903.11
2019-02-02T18:24:43.500Z,97904.91
2019-02-02T18:27:16.348Z,97911.97
2019-02-02T18:29:46.980Z,97923.53
2019-02-02T18:32:22.435Z,97935.48
2019-02-02T18:34:58.267Z,97945.92
2019-02-02T18:37:29.182Z,97951.52
2019-02-02T18:39:59.907Z,97947.97
2019-02-02T18:42:32.799Z,97949.46
2019-02-02T18:45:04.853Z,97951.48
2019-02-02T18:47:40.113Z,97951.81
2019-02-02T18:50:15.453Z,97955.14
2019-02-02T18:52:47.542Z,97966.73
2019-02-02T18:55:25.854Z,97971.27
2019-02-02T18:58:00.537Z,97974.37
2019-02-02T19:00:35.617Z,97986.39
2019-02-02T19:03:11.607Z,97982.26
2019-02-02T19:05:43.481Z,97981.18
2019-02-02T19:08:15.289Z,97992.20
2019-02-02T19:10:47.226Z,97993.58
2019-02-02T19:13:20.084Z,97993.55
2019-02-02T19:15:51.958Z,98005.66
2019-02-02T19:18:23.762Z,98012.64
2019-02-02T19:20:56.981Z,98013.13
2019-02-02T19:23:27.754Z,98023.34
2019-02-02T19:26:00.635Z,98029.13
2019-02-02T19:28:39.567Z,98041.44
2019-02-02T19:31:07.630Z,98044.47
2019-02-02T19:33:40.133Z,98048.78
2019-02-02T19:36:15.181Z,98064.39
2019-02-02T19:38:48.762Z,98059.09
2019-02-02T19:41:21.193Z,98067.33
2019-02-02T19:43:54.273Z,98067.23
2019-02-02T19:46:26.137Z,98075.46
2019-02-02T19:49:00.400Z,98083.50
2019-02-02T19:51:33.503Z,98080.94
2019-02-02T19:54:07.563Z,98082.38
2019-02-02T19:56:38.381Z,98089.42
2019-02-02T19:59:11.338Z,98093.26
2019-02-02T20:01:55.108Z,98091.98
2019-02-02T20:04:36.585Z,98095.70
2019-02-02T20:07:08.846Z,98090.11
2019-02-02T20:09:43.048Z,98107.11
2019-02-02T20:12:18.114Z,98116.46
2019-02-02T20:15:00.092Z,98119.13
2019-02-02T20:17:31.086Z,98128.63
2019-02-02T20:20:03.311Z,98125.59
2019-02-02T20:22:35.663Z,98123.03
2019-02-02T20:25:08.109Z,98131.55
2019-02-02T20:27:43.282Z,98140.89
2019-02-02T20:30:19.483Z,98139.20
2019-02-02T20:32:54.725Z,98143.20
2019-02-02T20:35:39.805Z,98154.61
2019-02-02T20:38:01.868Z,98148.19
2019-02-02T20:40:35.620Z,98163.37
2019-02-02T20:43:06.303Z,98165.00
2019-02-02T20:45:39.285Z,98164.95
2019-02-02T20:48:14.754Z,98163.60
2019-02-02T20:50:46.695Z,98168.70
2019-02-02T20:53:20.815Z,98187.13
2019-02-02T20:55:51.675Z,98172.51
2019-02-02T20:58:35.486Z,98172.69
2019-02-02T21:01:16.686Z,98171.76
2019-02-02T21:03:50.621Z,98176.83
2019-02-02T21:06:24.500Z,98188.48
2019-02-02T21:08:56.268Z,98192.31
2019-02-02T21:11:30.085Z,98198.03
2019-02-02T21:14:02.997Z,98191.72
2019-02-02T21:16:39.847Z,98194.72
2019-02-02T21:19:12.869Z,98192.34
2019-02-02T21:21:51.738Z,98196.81
2019-02-02T21:24:25.197Z,98205.48
2019-02-02T21:26:55.991Z,98206.71
2019-02-02T21:29:27.082Z,98215.68
2019-02-02T21:32:07.042Z,98217.23
2019-02-02T21:34:42.734Z,98230.03
2019-02-02T21:37:17.460Z,98235.41
2019-02-02T21:39:55.194Z,98228.59
2019-02-02T21:42:26.548Z,98233.64
2019-02-02T21:45:01.897Z,98228.48
2019-02-02T21:47:33.023Z,98237.95
2019-02-02T21:50:06.185Z,98253.35
2019-02-02T21:52:40.350Z,98259.56
2019-02-02T21:55:16.707Z,98271.63
2019-02-02T21:57:48.536Z,98272.84
2019-02-02T22:00:30.487Z,98281.80
2019-02-02T22:03:04.430Z,98287.70
2019-02-02T22:05:39.317Z,98278.25
2019-02-02T22:08:11.271Z,98273.42
2019-02-02T22:10:42.360Z,98272.23
2019-02-02T22:13:32.577Z,98287.48
2019-02-02T22:16:03.300Z,98288.88
2019-02-02T22:18:34.150Z,98299.95
2019-02-02T22:21:05.208Z,98295.55
2019-02-02T22:23:36.246Z,98302.89
2019-02-02T22:26:07.163Z,98298.91
2019-02-02T22:28:37.824Z,98296.68
2019-02-02T22:31:11.654Z,98293.02
2019-02-02T22:33:42.287Z,98306.03
2019-02-02T22:36:12.929Z,98320.53
2019-02-02T22:38:43.881Z,98321.02
2019-02-02T22:41:15.290Z,98327.70
2019-02-02T22:43:45.936Z,98330.19
2019-02-02T22:46:16.567Z,98337.84
2019-02-02T22:48:47.563Z,98339.55
2019-02-02T22:51:18.044Z,98342.67
2019-02-02T22:53:48.779Z,98325.03
2019-02-02T22:56:19.725Z,98324.73
2019-02-02T22:58:50.279Z,98324.45
2019-02-02T23:01:35.068Z,98334.91
2019-02-02T23:04:50.182Z,98342.02
2019-02-02T23:07:48.128Z,98351.91
2019-02-02T23:11:02.364Z,98356.34
2019-02-02T23:14:19.929Z,98366.69
2019-02-02T23:16:50.675Z,98364.41
2019-02-02T23:19:21.525Z,98363.77
2019-02-02T23:21:52.285Z,98371.47
2019-02-02T23:24:23.461Z,98361.84
2019-02-02T23:26:56.204Z,98369.22
2019-02-02T23:29:26.990Z,98379.16
2019-02-02T23:31:57.595Z,98377.47
2019-02-02T23:34:28.112Z,98384.47
2019-02-02T23:36:58.782Z,98373.75
2019-02-02T23:39:29.613Z,98368.81
2019-02-02T23:42:00.247Z,98370.50
2019-02-02T23:44:30.839Z,98374.81
2019-02-02T23:47:01.428Z,98363.54
2019-02-02T23:49:32.085Z,98371.20
2019-02-02T23:52:02.812Z,98374.27
2019-02-02T23:54:33.538Z,98375.81
2019-02-02T23:57:04.224Z,98388.09
2019-02-02T23:59:35.343Z,98389.36
